Time;durP1;ratioP1;P1;durP2;ratioP2;P2;SDS_P1;SDS_P2;PMS_P1;PMS_P2;Temp;Humidity;BMP_temperature;BMP_pressure;BME280_temperature;BME280_humidity;BME280_pressure;Samples;Min_cycle;Max_cycle;Signal;HPM_P1;HPM_P2
2022/08/30 00:02:44;;;;;;;0.20;0.20;;;;;;;23.61;36.79;100813.06;5116197;28;20061;-72
2022/08/30 00:05:10;;;;;;;0.10;0.10;;;;;;;23.59;36.91;100809.78;5111966;28;20020;-72
2022/08/30 00:07:36;;;;;;;0.30;0.30;;;;;;;23.59;37.04;100809.78;5095606;28;20032;-72
2022/08/30 00:10:02;;;;;;;0.20;0.20;;;;;;;23.59;37.05;100815.25;5096104;28;20381;-72
2022/08/30 00:12:28;;;;;;;0.17;0.17;;;;;;;23.59;37.28;100812.50;5095282;28;20031;-72
2022/08/30 00:14:53;;;;;;;0.20;0.20;;;;;;;23.58;36.79;100814.41;5095192;28;20028;-71
2022/08/30 00:17:19;;;;;;;0.30;0.30;;;;;;;23.59;36.84;100815.25;5095440;28;20056;-71
2022/08/30 00:19:44;;;;;;;0.32;0.30;;;;;;;23.59;37.11;100810.63;5095067;28;20020;-72
2022/08/30 00:22:10;;;;;;;0.30;0.30;;;;;;;23.56;37.17;100805.69;5095058;28;20090;-72
2022/08/30 00:24:36;;;;;;;0.20;0.20;;;;;;;23.58;36.92;100813.63;5095244;28;20020;-71
2022/08/30 00:27:02;;;;;;;0.25;0.25;;;;;;;23.55;36.93;100811.41;5095152;28;20368;-71
2022/08/30 00:29:27;;;;;;;0.20;0.20;;;;;;;23.57;37.08;100814.69;5095690;28;20064;-71
2022/08/30 00:31:53;;;;;;;0.20;0.20;;;;;;;23.56;37.17;100815.75;5095236;28;20450;-71
2022/08/30 00:34:18;;;;;;;0.28;0.28;;;;;;;23.58;37.04;100819.06;5094593;28;20052;-71
2022/08/30 00:36:44;;;;;;;0.20;0.20;;;;;;;23.55;37.20;100816.88;5094941;28;20031;-71
2022/08/30 00:39:09;;;;;;;0.20;0.20;;;;;;;23.56;36.93;100823.94;5094691;28;20459;-71
2022/08/30 00:41:36;;;;;;;0.20;0.20;;;;;;;23.57;37.09;100817.41;5094797;28;20055;-71
2022/08/30 00:44:02;;;;;;;0.30;0.30;;;;;;;23.52;36.90;100820.13;5093950;28;20028;-71
2022/08/30 00:46:27;;;;;;;0.20;0.20;;;;;;;23.55;37.10;100819.59;5094817;28;20085;-71
2022/08/30 00:48:53;;;;;;;0.20;0.20;;;;;;;23.53;37.31;100808.94;5094461;28;20078;-71
2022/08/30 00:51:19;;;;;;;0.20;0.20;;;;;;;23.54;36.89;100807.03;5076748;28;20032;-71
2022/08/30 00:53:53;;;;;;;0.10;0.10;;;;;;;23.53;37.18;100813.59;5077287;28;20020;-71
2022/08/30 00:56:19;;;;;;;0.20;0.20;;;;;;;23.53;37.17;100805.41;5060712;28;20031;-71
2022/08/30 00:58:47;;;;;;;0.30;0.30;;;;;;;23.52;37.35;100817.38;5059787;28;20024;-71
2022/08/30 01:01:13;;;;;;;0.20;0.20;;;;;;;23.53;37.09;100816.31;5059635;28;20031;-71
2022/08/30 01:03:38;;;;;;;0.13;0.13;;;;;;;23.52;36.88;100814.66;5059720;28;20024;-71
2022/08/30 01:06:04;;;;;;;0.20;0.20;;;;;;;23.52;36.88;100809.19;5070263;28;20463;-71
2022/08/30 01:08:30;;;;;;;0.30;0.30;;;;;;;23.50;36.97;100805.91;5096259;28;20027;-71
2022/08/30 01:10:56;;;;;;;0.20;0.20;;;;;;;23.52;37.07;100806.47;5114734;28;20088;-71
2022/08/30 01:13:21;;;;;;;0.30;0.30;;;;;;;23.51;37.11;100813.00;5096621;28;20024;-71
2022/08/30 01:15:47;;;;;;;0.20;0.20;;;;;;;23.51;36.91;100800.19;5096566;28;20415;-72
2022/08/30 01:18:13;;;;;;;0.30;0.30;;;;;;;23.49;37.23;100810.56;5096827;28;20097;-71
2022/08/30 01:21:02;;;;;;;0.15;0.15;;;;;;;23.52;37.09;100809.19;5079630;28;20099;-72
2022/08/30 01:23:27;;;;;;;0.20;0.20;;;;;;;23.51;37.12;100823.91;5114533;28;20099;-71
2022/08/30 01:25:53;;;;;;;0.20;0.20;;;;;;;23.51;36.84;100815.72;5096132;28;20461;-72
2022/08/30 01:28:20;;;;;;;0.30;0.30;;;;;;;23.49;36.99;100820.63;5096495;28;20024;-73
2022/08/30 01:30:46;;;;;;;0.20;0.20;;;;;;;23.50;36.98;100825.81;5096181;28;20054;-71
2022/08/30 01:33:11;;;;;;;0.20;0.20;;;;;;;23.49;36.67;100815.19;5096427;28;20024;-71
2022/08/30 01:35:48;;;;;;;0.20;0.20;;;;;;;23.50;36.69;100816.81;5113780;28;20082;-71
2022/08/30 01:38:14;;;;;;;0.20;0.20;;;;;;;23.48;36.77;100819.00;5114188;28;20046;-71
2022/08/30 01:40:39;;;;;;;0.22;0.20;;;;;;;23.49;36.99;100818.75;5113787;28;20115;-71
2022/08/30 01:43:05;;;;;;;0.13;0.13;;;;;;;23.44;37.05;100808.63;5114150;28;20062;-71
2022/08/30 01:45:31;;;;;;;0.15;0.15;;;;;;;23.49;37.21;100815.19;5095694;28;20031;-70
2022/08/30 01:47:56;;;;;;;0.20;0.20;;;;;;;23.48;37.11;100810.81;5113970;28;20028;-70
2022/08/30 01:50:23;;;;;;;0.20;0.20;;;;;;;23.48;37.10;100813.56;5113756;28;20023;-73
2022/08/30 01:52:48;;;;;;;0.20;0.20;;;;;;;23.48;37.10;100816.28;5113744;28;20029;-72
2022/08/30 01:55:15;;;;;;;0.20;0.20;;;;;;;23.47;36.99;100806.44;5094744;28;20031;-72
2022/08/30 01:57:41;;;;;;;0.20;0.20;;;;;;;23.47;36.79;100809.97;5114003;28;20027;-72
2022/08/30 02:00:08;;;;;;;0.20;0.20;;;;;;;23.47;36.86;100814.63;5113980;28;20027;-72
2022/08/30 02:02:34;;;;;;;0.10;0.10;;;;;;;23.46;36.92;100813.81;5113483;28;20369;-72
2022/08/30 02:04:59;;;;;;;0.20;0.20;;;;;;;23.45;37.17;100814.88;5113153;28;20072;-72
2022/08/30 02:07:25;;;;;;;0.20;0.20;;;;;;;23.47;37.00;100820.06;5093209;28;20099;-72
2022/08/30 02:09:51;;;;;;;0.20;0.20;;;;;;;23.46;37.17;100822.00;5093467;28;20035;-72
2022/08/30 02:12:16;;;;;;;0.20;0.20;;;;;;;23.47;36.90;100818.16;5093642;28;20032;-72
2022/08/30 02:14:42;;;;;;;0.20;0.20;;;;;;;23.46;36.96;100821.16;5093063;28;20502;-72
2022/08/30 02:17:08;;;;;;;0.10;0.10;;;;;;;23.46;36.89;100810.25;5093772;28;20111;-71
2022/08/30 02:19:34;;;;;;;0.20;0.20;;;;;;;23.47;37.11;100820.06;5093335;28;20031;-71
2022/08/30 02:22:00;;;;;;;0.10;0.10;;;;;;;23.46;36.92;100818.41;5093161;28;20458;-73
2022/08/30 02:24:25;;;;;;;0.20;0.20;;;;;;;23.46;37.14;100821.16;5093016;28;20027;-72
2022/08/30 02:26:54;;;;;;;0.20;0.20;;;;;;;23.45;37.12;100820.34;5092925;28;20073;-72
2022/08/30 02:29:20;;;;;;;0.17;0.17;;;;;;;23.43;36.88;100820.59;5093263;28;20066;-72
2022/08/30 02:31:46;;;;;;;0.20;0.20;;;;;;;23.44;36.81;100805.88;5093164;28;20085;-71
2022/08/30 02:34:11;;;;;;;0.20;0.20;;;;;;;23.46;37.00;100821.16;5092778;28;20044;-71
2022/08/30 02:36:39;;;;;;;0.20;0.20;;;;;;;23.46;36.92;100824.72;5093152;28;20035;-71
2022/08/30 02:39:05;;;;;;;0.20;0.20;;;;;;;23.49;36.72;100829.66;5093172;28;20040;-71
2022/08/30 02:41:30;;;;;;;0.20;0.20;;;;;;;23.49;36.71;100843.28;5092913;28;20070;-71
2022/08/30 02:43:58;;;;;;;0.20;0.20;;;;;;;23.51;36.77;100841.13;5092760;28;20463;-72
2022/08/30 02:46:23;;;;;;;0.20;0.20;;;;;;;23.51;36.97;100845.72;5093023;28;20025;-72
2022/08/30 02:48:49;;;;;;;0.10;0.10;;;;;;;23.51;36.71;100851.19;5092724;28;20389;-71
2022/08/30 02:51:14;;;;;;;0.10;0.10;;;;;;;23.55;36.76;100855.06;5074901;28;20035;-71
2022/08/30 02:53:40;;;;;;;0.10;0.10;;;;;;;23.56;36.88;100848.50;5074582;28;20047;-71
2022/08/30 02:56:06;;;;;;;0.20;0.20;;;;;;;23.59;36.58;100853.44;5093047;28;20028;-71
2022/08/30 02:58:32;;;;;;;0.20;0.20;;;;;;;23.59;36.48;100853.44;5092625;28;20036;-71
2022/08/30 03:00:57;;;;;;;0.20;0.20;;;;;;;23.61;36.37;100845.78;5092613;28;20024;-71
2022/08/30 03:03:23;;;;;;;0.20;0.20;;;;;;;23.63;36.58;100849.91;5092936;28;20016;-71
2022/08/30 03:05:48;;;;;;;0.25;0.25;;;;;;;23.63;36.49;100833.56;5099240;28;20389;-71
2022/08/30 03:08:14;;;;;;;0.20;0.20;;;;;;;23.66;36.45;100847.75;5116988;28;20048;-71
2022/08/30 03:10:39;;;;;;;0.55;0.20;;;;;;;23.65;36.32;100846.94;5117094;28;20381;-71
2022/08/30 03:13:06;;;;;;;0.13;0.13;;;;;;;23.68;36.51;100851.88;5116729;28;20377;-71
2022/08/30 03:15:33;;;;;;;0.20;0.20;;;;;;;23.66;36.59;100854.00;5116688;28;20425;-71
2022/08/30 03:17:58;;;;;;;1.02;0.30;;;;;;;23.70;36.40;100854.31;5116465;28;20096;-71
2022/08/30 03:20:24;;;;;;;0.30;0.30;;;;;;;23.69;36.25;100867.13;5098368;28;20020;-71
2022/08/30 03:22:49;;;;;;;0.22;0.20;;;;;;;23.69;36.41;100864.41;5098586;28;20373;-71
2022/08/30 03:25:15;;;;;;;0.10;0.10;;;;;;;23.70;36.68;100860.59;5116749;28;20099;-71
2022/08/30 03:27:41;;;;;;;0.13;0.13;;;;;;;23.72;36.38;100857.63;5098300;28;20024;-71
2022/08/30 03:30:07;;;;;;;0.20;0.20;;;;;;;23.72;36.39;100858.44;5116388;28;20121;-71
2022/08/30 03:32:32;;;;;;;0.10;0.10;;;;;;;23.72;36.38;100852.97;5116383;28;20480;-71
2022/08/30 03:34:58;;;;;;;0.10;0.10;;;;;;;23.75;36.13;100854.34;5116115;28;20039;-71
2022/08/30 03:37:24;;;;;;;0.10;0.10;;;;;;;23.75;36.27;100857.06;5116661;28;20020;-71
2022/08/30 03:39:49;;;;;;;0.20;0.20;;;;;;;23.77;36.47;100861.19;5116197;28;20032;-71
2022/08/30 03:42:15;;;;;;;0.13;0.13;;;;;;;23.77;36.25;100853.00;5116483;28;20113;-71
2022/08/30 03:44:40;;;;;;;0.20;0.20;;;;;;;23.79;36.25;100856.28;5116444;28;20450;-70
2022/08/30 03:47:07;;;;;;;0.20;0.20;;;;;;;23.83;36.24;100853.88;5116419;28;20489;-70
2022/08/30 03:49:32;;;;;;;0.20;0.20;;;;;;;23.84;36.39;100858.25;5116149;28;20433;-70
2022/08/30 03:51:58;;;;;;;0.20;0.20;;;;;;;23.85;36.11;100854.41;5116366;28;20114;-71
2022/08/30 03:54:23;;;;;;;0.20;0.20;;;;;;;23.85;36.40;100862.59;5116733;28;20374;-71
2022/08/30 03:56:49;;;;;;;0.20;0.20;;;;;;;23.87;36.16;100856.88;5116278;28;20023;-71
2022/08/30 03:59:15;;;;;;;0.20;0.20;;;;;;;23.87;36.20;100862.34;5116267;28;20024;-71
2022/08/30 04:01:44;;;;;;;0.20;0.20;;;;;;;23.88;36.02;100853.09;5115993;28;20200;-71
2022/08/30 04:04:10;;;;;;;0.30;0.20;;;;;;;23.90;36.03;100859.09;5116094;28;20053;-71
2022/08/30 04:06:35;;;;;;;0.20;0.20;;;;;;;23.90;36.17;100854.44;5105991;28;20028;-70
2022/08/30 04:09:01;;;;;;;0.20;0.20;;;;;;;23.91;36.31;100856.09;5080214;28;20039;-70
2022/08/30 04:11:27;;;;;;;0.20;0.20;;;;;;;23.93;36.34;100862.13;5100416;28;20031;-70
2022/08/30 04:13:54;;;;;;;1.00;0.20;;;;;;;23.94;36.13;100854.72;5099913;28;20051;-70
2022/08/30 04:16:20;;;;;;;0.17;0.17;;;;;;;23.93;36.30;100862.13;5099617;28;20458;-70
2022/08/30 04:18:46;;;;;;;0.10;0.10;;;;;;;23.91;36.62;100855.28;5083832;28;20047;-70
2022/08/30 04:21:11;;;;;;;0.68;0.57;;;;;;;23.94;36.23;100871.13;5103443;28;20458;-70
2022/08/30 04:23:37;;;;;;;0.57;0.45;;;;;;;23.95;36.50;100868.13;5095933;28;20403;-70
2022/08/30 04:26:03;;;;;;;0.73;0.50;;;;;;;23.99;36.11;100868.41;5094952;28;20024;-70
2022/08/30 04:28:28;;;;;;;2.33;0.90;;;;;;;23.98;36.05;100864.88;5094786;28;20107;-70
2022/08/30 04:30:53;;;;;;;0.82;0.52;;;;;;;24.01;36.17;100866.25;5095390;28;20032;-70
2022/08/30 04:33:19;;;;;;;1.23;0.77;;;;;;;24.00;36.30;100870.06;5095009;28;20046;-70
2022/08/30 04:35:46;;;;;;;0.90;0.50;;;;;;;24.00;36.65;100867.34;5094510;28;20074;-70
2022/08/30 04:38:12;;;;;;;0.88;0.55;;;;;;;23.99;36.18;100868.41;5094835;28;20074;-70
2022/08/30 04:40:40;;;;;;;0.47;0.32;;;;;;;23.99;36.37;100871.13;5096088;28;20024;-73
2022/08/30 04:43:06;;;;;;;0.70;0.47;;;;;;;24.02;36.52;100862.41;5094587;28;20519;-70
2022/08/30 04:45:31;;;;;;;1.30;0.60;;;;;;;24.03;36.17;100864.06;5094663;28;20020;-70
2022/08/30 04:47:57;;;;;;;0.43;0.35;;;;;;;24.03;36.27;100869.53;5094526;28;20035;-70
2022/08/30 04:50:22;;;;;;;0.45;0.20;;;;;;;24.03;36.23;100861.34;5094229;28;20023;-71
2022/08/30 04:52:48;;;;;;;0.40;0.40;;;;;;;24.03;36.45;100866.81;5094561;28;20028;-70
2022/08/30 04:55:14;;;;;;;0.80;0.40;;;;;;;24.05;36.34;100872.81;5094315;28;20027;-70
2022/08/30 04:57:45;;;;;;;0.65;0.30;;;;;;;23.99;36.65;100873.88;5095083;28;20443;-72
2022/08/30 05:00:11;;;;;;;0.98;0.30;;;;;;;24.03;36.43;100872.28;5077531;28;20119;-73
2022/08/30 05:02:40;;;;;;;0.38;0.30;;;;;;;24.04;36.37;100867.63;5076064;28;20028;-71
2022/08/30 05:07:50;;;;;;;1.63;0.90;;;;;;;24.08;36.49;100872.28;5074135;28;20035;-71
2022/08/30 05:10:16;;;;;;;3.60;0.95;;;;;;;24.11;36.21;100865.47;5074079;28;20235;-71
2022/08/30 05:12:42;;;;;;;1.58;0.50;;;;;;;24.09;36.65;100864.91;5073741;28;20040;-71
2022/08/30 05:15:08;;;;;;;1.08;0.60;;;;;;;24.11;36.46;100869.03;5073949;28;20056;-71
2022/08/30 05:17:35;;;;;;;0.80;0.60;;;;;;;24.12;36.85;100867.13;5073535;28;20021;-71
2022/08/30 05:20:01;;;;;;;1.85;0.40;;;;;;;24.13;36.43;100871.50;5056365;28;20025;-71
2022/08/30 05:22:27;;;;;;;0.47;0.30;;;;;;;24.06;36.58;100866.28;5073954;28;20037;-72
2022/08/30 05:24:52;;;;;;;1.20;0.30;;;;;;;24.11;36.67;100868.19;5074003;28;20074;-71
2022/08/30 05:27:18;;;;;;;0.30;0.30;;;;;;;23.92;36.84;100862.38;5075697;28;20024;-70
2022/08/30 05:29:43;;;;;;;1.00;0.32;;;;;;;24.02;36.79;100861.63;5073858;28;20351;-70
2022/08/30 05:32:09;;;;;;;0.45;0.30;;;;;;;24.00;36.75;100870.06;5075213;28;20467;-70
2022/08/30 05:34:34;;;;;;;0.38;0.30;;;;;;;24.07;36.88;100862.44;5077059;28;20052;-70
2022/08/30 05:37:01;;;;;;;0.52;0.30;;;;;;;24.12;36.62;100859.75;5061563;28;20028;-69
2022/08/30 05:39:27;;;;;;;0.20;0.20;;;;;;;24.10;36.72;100859.19;5078903;28;20040;-70
2022/08/30 05:41:57;;;;;;;0.30;0.20;;;;;;;24.08;36.29;100872.28;5096648;28;20024;-72
2022/08/30 05:44:22;;;;;;;0.30;0.20;;;;;;;24.03;36.91;100864.06;5083686;28;20099;-71
2022/08/30 05:46:48;;;;;;;2.00;0.20;;;;;;;24.09;36.95;100867.66;5082066;28;20017;-71
2022/08/30 05:49:14;;;;;;;0.22;0.20;;;;;;;24.17;36.55;100864.41;5057845;28;20102;-72
2022/08/30 05:51:39;;;;;;;0.55;0.20;;;;;;;24.19;36.64;100868.50;5074271;28;20024;-71
2022/08/30 05:54:05;;;;;;;0.20;0.20;;;;;;;24.19;36.63;100871.22;5074329;28;20107;-72
2022/08/30 05:56:32;;;;;;;0.88;0.20;;;;;;;24.22;36.69;100871.81;5073481;28;20025;-71
2022/08/30 05:58:58;;;;;;;0.20;0.20;;;;;;;24.19;36.71;100868.50;5073888;28;20040;-72
2022/08/30 06:01:25;;;;;;;0.25;0.17;;;;;;;24.23;36.62;100878.91;5074119;28;20031;-71
2022/08/30 06:03:52;;;;;;;0.20;0.20;;;;;;;24.27;36.37;100869.09;5073485;28;20443;-72
2022/08/30 06:06:17;;;;;;;0.20;0.20;;;;;;;24.16;36.40;100862.75;5072616;28;20478;-70
2022/08/30 06:08:47;;;;;;;2.05;0.30;;;;;;;24.19;36.92;100868.50;5113752;28;20023;-71
2022/08/30 06:11:14;;;;;;;1.17;0.60;;;;;;;24.14;36.84;100871.22;5113976;28;20034;-71
2022/08/30 06:13:40;;;;;;;2.60;0.80;;;;;;;24.11;37.00;100866.31;5113734;28;20024;-72
2022/08/30 06:16:07;;;;;;;3.92;1.48;;;;;;;24.13;37.09;100875.03;5114344;28;20031;-71
2022/08/30 06:18:32;;;;;;;8.98;3.25;;;;;;;24.18;36.97;100876.97;5115315;28;20031;-72
2022/08/30 06:20:58;;;;;;;13.05;4.97;;;;;;;24.15;36.79;100877.50;5114987;28;20522;-72
2022/08/30 06:23:23;;;;;;;12.60;4.28;;;;;;;24.21;36.96;100873.69;5114274;28;20055;-72
2022/08/30 06:25:49;;;;;;;10.82;3.97;;;;;;;24.20;36.74;100880.25;5113771;28;20043;-72
2022/08/30 06:28:14;;;;;;;10.57;3.67;;;;;;;24.28;36.29;100879.72;5095835;28;20106;-71
2022/08/30 06:30:40;;;;;;;8.93;2.70;;;;;;;24.09;37.10;100878.56;5113013;28;20370;-71
2022/08/30 06:33:06;;;;;;;7.80;2.33;;;;;;;24.11;37.09;100885.41;5095890;28;20119;-71
2022/08/30 06:35:31;;;;;;;5.47;2.03;;;;;;;24.13;36.81;100883.25;5113197;28;20466;-71
2022/08/30 06:37:57;;;;;;;5.25;1.77;;;;;;;24.14;36.98;100882.13;5113632;28;20106;-72
2022/08/30 06:40:23;;;;;;;2.70;1.20;;;;;;;24.19;37.06;100884.88;5113459;28;20491;-71
2022/08/30 06:42:50;;;;;;;3.03;1.20;;;;;;;24.30;36.46;100883.03;5098095;28;20019;-72
2022/08/30 06:45:16;;;;;;;4.85;1.48;;;;;;;24.26;36.61;100883.81;5117365;28;20031;-73
2022/08/30 06:47:42;;;;;;;3.28;1.10;;;;;;;24.25;36.35;100880.28;5117108;28;20103;-72
2022/08/30 06:50:08;;;;;;;5.75;1.30;;;;;;;24.35;36.38;100882.22;5117252;28;20055;-72
2022/08/30 06:52:34;;;;;;;3.10;1.55;;;;;;;24.23;36.69;100887.91;5117111;28;20037;-72
2022/08/30 06:54:59;;;;;;;4.22;1.60;;;;;;;24.15;36.92;100889.25;5117127;28;20441;-72
2022/08/30 06:57:25;;;;;;;7.30;2.80;;;;;;;24.28;36.72;100889.84;5117382;28;20023;-73
2022/08/30 06:59:56;;;;;;;8.77;3.47;;;;;;;24.18;36.91;100883.25;5099218;28;20027;-72
2022/08/30 07:02:22;;;;;;;9.02;3.50;;;;;;;24.23;36.51;100889.81;5117143;28;20052;-72
2022/08/30 07:04:48;;;;;;;12.32;5.20;;;;;;;24.35;36.27;100887.69;5117376;28;20019;-72
2022/08/30 07:07:13;;;;;;;16.05;5.38;;;;;;;24.28;36.31;100887.91;5101734;28;20527;-72
2022/08/30 07:09:42;;;;;;;14.63;5.72;;;;;;;24.36;36.50;100883.88;5079220;28;20047;-71
2022/08/30 07:12:08;;;;;;;12.27;5.18;;;;;;;24.32;36.70;100874.59;5096513;28;20069;-71
2022/08/30 07:14:34;;;;;;;10.38;4.03;;;;;;;24.30;36.46;100874.84;5095811;28;20059;-72
2022/08/30 07:17:00;;;;;;;8.93;3.78;;;;;;;24.22;36.75;100871.81;5096845;28;20035;-71
2022/08/30 07:19:25;;;;;;;8.35;2.95;;;;;;;24.31;36.66;100881.13;5097065;28;20058;-71
2022/08/30 07:21:50;;;;;;;5.22;2.58;;;;;;;24.36;36.28;100872.94;5097630;28;20028;-71
2022/08/30 07:24:17;;;;;;;5.88;2.60;;;;;;;24.36;36.29;100881.13;5096327;28;20576;-71
2022/08/30 07:26:47;;;;;;;4.85;2.00;;;;;;;24.41;36.34;100883.06;5097314;28;20028;-71
2022/08/30 07:29:13;;;;;;;3.80;1.55;;;;;;;24.39;36.18;100872.41;5096079;28;20035;-72
2022/08/30 07:31:39;;;;;;;3.30;1.67;;;;;;;24.40;35.94;100876.78;5096509;28;20036;-72
2022/08/30 07:34:04;;;;;;;4.30;1.50;;;;;;;24.33;36.38;100871.56;5096502;28;20048;-72
2022/08/30 07:36:30;;;;;;;3.83;1.20;;;;;;;24.30;36.71;100868.53;5096695;28;20035;-73
2022/08/30 07:38:56;;;;;;;2.55;1.13;;;;;;;24.33;36.25;100874.28;5097693;28;20130;-72
2022/08/30 07:41:29;;;;;;;2.85;0.90;;;;;;;24.44;36.24;100879.78;5096589;28;20478;-71
2022/08/30 07:43:54;;;;;;;2.67;1.08;;;;;;;24.41;36.50;100870.22;5061356;28;20032;-71
2022/08/30 07:46:20;;;;;;;1.23;0.90;;;;;;;24.39;36.35;100875.16;5096770;28;20105;-72
2022/08/30 07:48:47;;;;;;;2.75;0.60;;;;;;;24.42;36.31;100873.78;5095697;28;20428;-72
2022/08/30 07:51:15;;;;;;;1.50;0.73;;;;;;;24.37;36.75;100869.13;5096059;28;20024;-71
2022/08/30 07:53:40;;;;;;;0.70;0.52;;;;;;;24.32;36.77;100872.66;5096830;28;20024;-72
2022/08/30 07:56:06;;;;;;;1.75;0.73;;;;;;;24.34;36.69;100872.41;5096685;28;20031;-71
2022/08/30 07:58:32;;;;;;;2.65;0.65;;;;;;;24.38;36.55;100873.50;5096625;28;20028;-72
2022/08/30 08:01:00;;;;;;;3.40;0.60;;;;;;;24.43;36.51;100876.25;5097073;28;20032;-73
2022/08/30 08:03:26;;;;;;;1.70;0.50;;;;;;;24.39;36.21;100872.41;5078842;28;20088;-73
2022/08/30 08:06:04;;;;;;;0.52;0.40;;;;;;;24.52;36.23;100871.88;5106822;28;20024;-75
2022/08/30 08:08:30;;;;;;;0.50;0.35;;;;;;;24.49;35.93;100868.88;5121665;28;20381;-72
2022/08/30 08:10:55;;;;;;;0.65;0.35;;;;;;;24.44;36.04;100866.97;5119321;28;20033;-71
2022/08/30 08:13:22;;;;;;;0.77;0.40;;;;;;;24.51;35.78;100864.78;5121694;28;20019;-71
2022/08/30 08:15:47;;;;;;;0.77;0.38;;;;;;;24.43;35.86;100862.56;5100630;28;20115;-73
2022/08/30 08:18:13;;;;;;;0.93;0.40;;;;;;;24.38;36.09;100866.09;5115833;28;20066;-72
2022/08/30 08:20:38;;;;;;;0.30;0.20;;;;;;;24.37;35.57;100858.22;5115589;28;20061;-72
2022/08/30 08:23:04;;;;;;;0.30;0.30;;;;;;;24.40;35.52;100862.28;5118207;28;20094;-73
2022/08/30 08:25:29;;;;;;;0.80;0.50;;;;;;;24.37;35.75;100874.59;5118485;28;20020;-72
2022/08/30 08:27:55;;;;;;;0.40;0.40;;;;;;;24.42;35.70;100873.78;5115902;28;20068;-72
2022/08/30 08:30:21;;;;;;;0.50;0.45;;;;;;;24.57;35.30;100883.97;5115846;28;20500;-77
2022/08/30 08:32:47;;;;;;;0.30;0.30;;;;;;;24.45;35.62;100860.41;5106652;28;20096;-78
2022/08/30 08:35:13;;;;;;;0.38;0.30;;;;;;;24.52;35.41;100871.06;5095877;28;20161;-78
2022/08/30 08:37:38;;;;;;;1.05;0.30;;;;;;;24.63;34.75;100875.50;5094508;28;20413;-78
2022/08/30 08:40:05;;;;;;;0.30;0.30;;;;;;;24.61;35.15;100879.59;5095677;28;20031;-78
2022/08/30 08:42:45;;;;;;;0.40;0.35;;;;;;;24.51;35.04;100892.13;5095786;28;20458;-78
2022/08/30 08:45:13;;;;;;;0.50;0.40;;;;;;;24.63;34.88;100894.63;5093726;28;20039;-79
2022/08/30 08:47:41;;;;;;;0.20;0.20;;;;;;;24.60;34.67;100878.78;5094872;28;20342;-78
2022/08/30 08:50:11;;;;;;;0.38;0.30;;;;;;;24.58;34.91;100891.06;5095017;28;20035;-78
2022/08/30 08:55:26;;;;;;;0.35;0.30;;;;;;;24.55;34.56;100898.69;5095564;28;20039;-78
2022/08/30 08:57:52;;;;;;;0.65;0.30;;;;;;;24.58;34.64;100891.91;5095928;28;20017;-78
2022/08/30 09:00:17;;;;;;;0.73;0.30;;;;;;;24.58;34.96;100896.50;5095798;28;20109;-78
2022/08/30 09:02:52;;;;;;;0.17;0.17;;;;;;;24.63;34.72;100889.19;5098520;28;20024;-78
2022/08/30 09:05:19;;;;;;;1.55;0.30;;;;;;;24.69;34.44;100892.72;5102672;28;20024;-77
2022/08/30 09:07:48;;;;;;;0.20;0.20;;;;;;;24.55;34.20;100879.56;5088638;28;20082;-76
2022/08/30 09:10:13;;;;;;;0.35;0.30;;;;;;;24.65;34.37;100886.19;5089949;28;20032;-77
2022/08/30 09:12:39;;;;;;;0.25;0.25;;;;;;;24.57;34.43;100900.34;5070081;28;20021;-77
2022/08/30 09:15:16;;;;;;;1.85;0.40;;;;;;;24.57;33.97;100894.91;5090536;28;20020;-76
2022/08/30 09:17:49;;;;;;;0.40;0.20;;;;;;;24.57;34.18;100905.81;5086827;28;20052;-77
2022/08/30 09:20:32;;;;;;;1.00;0.20;;;;;;;24.59;33.76;100892.72;5078282;28;20028;-78
2022/08/30 09:22:57;;;;;;;0.35;0.35;;;;;;;24.66;33.83;100887.81;5076236;28;20389;-77
2022/08/30 09:25:25;;;;;;;2.30;0.40;;;;;;;24.66;33.58;100893.25;5055346;28;20080;-77
2022/08/30 09:27:51;;;;;;;0.30;0.20;;;;;;;24.57;33.90;100889.44;5073872;28;20037;-77
2022/08/30 09:30:22;;;;;;;2.42;0.38;;;;;;;24.63;33.50;100893.81;5073885;28;20036;-77
2022/08/30 09:32:59;;;;;;;0.30;0.20;;;;;;;24.54;33.57;100897.09;5075100;28;20038;-78
2022/08/30 09:35:35;;;;;;;2.17;0.90;;;;;;;24.58;33.78;100891.91;5059183;28;20139;-76
2022/08/30 09:38:04;;;;;;;6.43;2.63;;;;;;;24.60;33.54;100897.91;5063028;28;20028;-77
2022/08/30 09:40:44;;;;;;;7.15;3.47;;;;;;;24.59;33.53;100892.72;5075042;28;20071;-78
2022/08/30 09:43:17;;;;;;;7.22;3.22;;;;;;;24.66;33.66;100898.72;5059342;28;20039;-78
2022/08/30 09:46:09;;;;;;;6.32;2.55;;;;;;;24.65;33.71;100905.31;5059166;28;20025;-78
2022/08/30 09:48:37;;;;;;;3.42;1.77;;;;;;;24.73;33.12;100904.75;5073204;28;20047;-76
2022/08/30 09:51:11;;;;;;;3.40;1.50;;;;;;;24.65;33.41;100903.38;5075795;28;20024;-77
2022/08/30 09:53:46;;;;;;;3.17;1.58;;;;;;;24.72;33.19;100908.59;5056413;28;20460;-77
2022/08/30 09:56:17;;;;;;;2.90;1.20;;;;;;;24.67;33.81;100914.06;5074719;28;20414;-77
2022/08/30 09:59:02;;;;;;;3.85;1.17;;;;;;;24.67;33.23;100914.06;5056880;28;20107;-77
2022/08/30 10:01:41;;;;;;;2.05;0.90;;;;;;;24.79;32.65;100914.63;5041495;28;20020;-78
2022/08/30 10:04:12;;;;;;;1.52;0.90;;;;;;;24.81;32.83;100922.56;5074501;28;20127;-77
2022/08/30 10:06:49;;;;;;;2.03;1.02;;;;;;;24.74;33.12;100909.97;5075906;28;20036;-79
2022/08/30 10:09:25;;;;;;;1.83;0.88;;;;;;;24.69;33.11;100917.34;5059061;28;20086;-77
2022/08/30 10:12:35;;;;;;;1.13;0.80;;;;;;;24.73;32.31;100905.59;5057401;28;20040;-78
2022/08/30 10:15:20;;;;;;;0.98;0.60;;;;;;;24.78;32.45;100912.97;4993468;28;20034;-78
2022/08/30 10:18:04;;;;;;;0.68;0.47;;;;;;;24.72;32.20;100909.41;4992839;28;20133;-78
2022/08/30 10:20:49;;;;;;;0.50;0.50;;;;;;;24.69;32.19;100909.13;4992472;28;20026;-78
2022/08/30 10:23:18;;;;;;;;;;;;;;;24.84;31.56;100900.97;4976800;28;20057;-78
2022/08/30 10:26:03;;;;;;;0.90;0.50;;;;;;;24.87;31.72;100910.53;5012075;28;19909;-77
2022/08/30 10:28:50;;;;;;;0.20;0.20;;;;;;;24.78;31.50;100902.03;4996444;28;20186;-77
2022/08/30 10:32:03;;;;;;;0.85;0.38;;;;;;;24.76;31.66;100900.69;5011768;28;20105;-77
2022/08/30 10:34:36;;;;;;;0.57;0.43;;;;;;;24.75;31.75;100899.88;4933655;29;20055;-78
2022/08/30 10:37:08;;;;;;;0.35;0.30;;;;;;;24.79;31.63;100905.63;4919575;29;20036;-77
2022/08/30 10:39:40;;;;;;;0.40;0.40;;;;;;;24.87;31.58;100894.13;4936399;29;20047;-78
2022/08/30 10:42:09;;;;;;;1.20;0.30;;;;;;;24.79;31.71;100894.69;4935264;29;20059;-78
2022/08/30 10:44:37;;;;;;;0.40;0.40;;;;;;;24.77;31.86;100903.16;4934279;29;20066;-77
2022/08/30 10:47:26;;;;;;;0.20;0.20;;;;;;;24.82;31.30;100896.84;4935366;29;20065;-77
2022/08/30 10:50:04;;;;;;;1.27;0.40;;;;;;;24.83;31.38;100901.22;4985861;28;20042;-78
2022/08/30 10:52:36;;;;;;;0.43;0.30;;;;;;;24.78;31.29;100907.50;4992655;28;20174;-78
2022/08/30 10:55:10;;;;;;;0.20;0.20;;;;;;;24.83;31.14;100901.22;4991514;28;20026;-76
2022/08/30 10:57:36;;;;;;;0.30;0.30;;;;;;;24.83;31.68;100904.78;4991234;28;20030;-76
2022/08/30 11:00:09;;;;;;;0.30;0.30;;;;;;;24.81;31.48;100901.50;4977379;28;20089;-76
2022/08/30 11:03:14;;;;;;;1.85;0.30;;;;;;;24.89;31.03;100903.72;4959669;28;20093;-76
2022/08/30 11:05:57;;;;;;;1.95;0.22;;;;;;;24.93;31.29;100910.25;4934334;29;20046;-77
2022/08/30 11:08:52;;;;;;;0.20;0.20;;;;;;;24.87;31.12;100894.97;4899017;29;20044;-76
2022/08/30 11:11:36;;;;;;;0.40;0.28;;;;;;;24.77;31.38;100908.63;4938835;28;20482;-76
2022/08/30 11:14:02;;;;;;;0.98;0.35;;;;;;;24.78;31.68;100904.78;4990965;28;20065;-75
2022/08/30 11:16:38;;;;;;;0.30;0.30;;;;;;;24.85;31.41;100897.16;4974802;28;20540;-77
2022/08/30 11:19:25;;;;;;;0.30;0.30;;;;;;;24.77;30.92;100905.03;4975402;28;20104;-78
2022/08/30 11:21:50;;;;;;;0.85;0.15;;;;;;;24.88;30.17;100896.59;4991192;28;20041;-78
2022/08/30 11:24:22;;;;;;;0.45;0.30;;;;;;;24.88;30.52;100898.50;4958885;28;20046;-76
2022/08/30 11:26:47;;;;;;;0.20;0.20;;;;;;;24.82;30.56;100892.22;4990944;28;20034;-78
2022/08/30 11:29:43;;;;;;;1.35;0.22;;;;;;;24.83;30.38;100887.56;4994472;28;20093;-78
2022/08/30 11:32:11;;;;;;;1.02;0.30;;;;;;;24.87;30.28;100888.66;4994410;28;20073;-77
2022/08/30 11:34:45;;;;;;;0.17;0.17;;;;;;;24.92;30.33;100885.94;4994009;28;20054;-77
2022/08/30 11:37:39;;;;;;;1.75;0.20;;;;;;;24.88;29.85;100890.31;4994304;28;20139;-78